Time;durP1;ratioP1;P1;durP2;ratioP2;P2;SDS_P1;SDS_P2;PMS_P1;PMS_P2;Temp;Humidity;BMP_temperature;BMP_pressure;BME280_temperature;BME280_humidity;BME280_pressure;Samples;Min_cycle;Max_cycle;Signal;HPM_P1;HPM_P2
2022/08/23 00:02:10;;;;;;;3.65;2.10;;;22.30;64.70;;;;;;5070213;28;20493;-74
2022/08/23 00:04:38;;;;;;;3.15;2.13;;;22.20;64.70;;;;;;5071854;28;20052;-75
2022/08/23 00:07:08;;;;;;;2.85;1.90;;;22.20;64.70;;;;;;5066129;28;20055;-74
2022/08/23 00:09:35;;;;;;;3.05;1.90;;;22.20;64.70;;;;;;5053667;28;20485;-74
2022/08/23 00:12:09;;;;;;;2.85;2.00;;;22.20;64.70;;;;;;5053016;28;20053;-74
2022/08/23 00:14:37;;;;;;;3.05;1.95;;;22.20;64.70;;;;;;5055638;28;20060;-75
2022/08/23 00:17:04;;;;;;;4.18;2.10;;;22.20;64.70;;;;;;5054573;28;20055;-75
2022/08/23 00:19:31;;;;;;;3.17;1.92;;;22.20;64.70;;;;;;5053276;28;20091;-74
2022/08/23 00:21:58;;;;;;;3.47;2.30;;;22.20;64.70;;;;;;5053097;28;20083;-74
2022/08/23 00:24:26;;;;;;;3.13;2.05;;;22.20;64.70;;;;;;5053881;28;20085;-74
2022/08/23 00:26:55;;;;;;;2.83;2.08;;;22.20;64.70;;;;;;5046622;28;20472;-75
2022/08/23 00:29:22;;;;;;;3.00;2.00;;;22.20;64.70;;;;;;5067475;28;20124;-74
2022/08/23 00:31:49;;;;;;;3.60;2.00;;;22.10;64.60;;;;;;5073170;28;20056;-74
2022/08/23 00:34:16;;;;;;;2.45;1.88;;;22.20;64.60;;;;;;5057433;28;20056;-75
2022/08/23 00:36:44;;;;;;;3.05;1.95;;;22.10;64.60;;;;;;5054338;28;20048;-74
2022/08/23 00:39:11;;;;;;;2.95;2.03;;;22.10;64.60;;;;;;5054121;28;20057;-74
2022/08/23 00:41:39;;;;;;;4.22;2.13;;;22.10;64.60;;;;;;5055870;28;20056;-74
2022/08/23 00:49:36;;;;;;;3.05;1.88;;;22.10;64.70;;;;;;5052905;28;20049;-75
2022/08/23 00:52:06;;;;;;;3.42;2.35;;;22.30;64.80;;;;;;5052564;28;20084;-75
2022/08/23 00:54:33;;;;;;;3.00;2.13;;;22.10;64.70;;;;;;5068251;28;20051;-74
2022/08/23 00:57:04;;;;;;;4.40;2.15;;;22.10;64.70;;;;;;5055537;28;20057;-74
2022/08/23 00:59:31;;;;;;;4.45;2.20;;;22.10;64.60;;;;;;5053115;28;20115;-74
2022/08/23 01:01:58;;;;;;;3.25;2.33;;;22.10;64.60;;;;;;5052459;28;20135;-74
2022/08/23 01:04:25;;;;;;;3.28;2.40;;;22.10;64.70;;;;;;5065476;28;20486;-75
2022/08/23 01:06:55;;;;;;;3.90;2.20;;;22.10;64.60;;;;;;5054158;28;20048;-74
2022/08/23 01:09:22;;;;;;;4.25;2.40;;;22.10;64.60;;;;;;5060734;28;20520;-74
2022/08/23 01:11:50;;;;;;;3.55;2.45;;;22.00;64.60;;;;;;5052440;28;20521;-74
2022/08/23 01:14:19;;;;;;;2.80;2.45;;;22.00;64.60;;;;;;5071050;28;20409;-74
2022/08/23 01:16:49;;;;;;;4.47;2.50;;;22.10;64.60;;;;;;5073226;28;20135;-74
2022/08/23 01:19:19;;;;;;;4.10;2.25;;;22.10;64.60;;;;;;5061426;28;20135;-74
2022/08/23 01:21:48;;;;;;;4.07;2.60;;;20.70;65.70;;;;;;5051889;28;20147;-76
2022/08/23 01:24:17;;;;;;;3.45;2.53;;;22.00;64.60;;;;;;5063752;28;20127;-76
2022/08/23 01:26:43;;;;;;;3.40;2.30;;;22.00;64.50;;;;;;5071704;28;20127;-75
2022/08/23 01:29:10;;;;;;;3.17;2.45;;;22.00;64.50;;;;;;5070978;28;20057;-75
2022/08/23 01:31:37;;;;;;;3.25;2.40;;;22.00;64.50;;;;;;5072526;28;20049;-74
2022/08/23 01:34:05;;;;;;;3.50;2.40;;;22.00;64.50;;;;;;5069973;28;20076;-75
2022/08/23 01:36:32;;;;;;;3.58;2.50;;;22.00;64.50;;;;;;5071368;28;20052;-74
2022/08/23 01:38:59;;;;;;;2.33;2.03;;;22.00;64.50;;;;;;5072705;28;20055;-76
2022/08/23 01:41:27;;;;;;;4.75;2.53;;;22.70;64.80;;;;;;5069849;28;20410;-76
2022/08/23 01:43:53;;;;;;;5.63;2.70;;;22.00;64.40;;;;;;5053611;28;20549;-74
2022/08/23 01:46:22;;;;;;;3.88;2.50;;;22.00;64.50;;;;;;5051414;28;20053;-74
2022/08/23 01:48:49;;;;;;;3.75;2.55;;;22.00;64.40;;;;;;5054684;28;20057;-74
2022/08/23 01:51:16;;;;;;;3.50;2.53;;;22.00;64.40;;;;;;5066211;28;20553;-75
2022/08/23 01:53:45;;;;;;;4.85;2.33;;;22.00;64.40;;;;;;5070640;28;20412;-74
2022/08/23 01:56:11;;;;;;;3.13;2.40;;;22.00;64.40;;;;;;5071466;28;20174;-74
2022/08/23 01:58:39;;;;;;;5.45;2.50;;;22.00;64.50;;;;;;5070560;28;20052;-74
2022/08/23 02:01:06;;;;;;;3.45;2.35;;;22.00;64.40;;;;;;5063832;28;20061;-74
2022/08/23 02:03:33;;;;;;;2.95;2.60;;;22.00;64.40;;;;;;5065257;28;20534;-74
2022/08/23 02:06:00;;;;;;;3.00;2.20;;;21.90;64.30;;;;;;5061218;28;20059;-75
2022/08/23 02:11:12;;;;;;;4.07;2.40;;;22.00;64.40;;;;;;5051519;28;20053;-74
2022/08/23 02:13:40;;;;;;;3.97;2.20;;;21.90;64.80;;;;;;5052519;28;20056;-74
2022/08/23 02:16:07;;;;;;;5.95;2.40;;;21.90;64.30;;;;;;5063157;28;20140;-74
2022/08/23 02:18:34;;;;;;;2.63;2.10;;;21.90;64.30;;;;;;5058782;28;20114;-74
2022/08/23 02:21:00;;;;;;;2.40;2.08;;;21.90;64.30;;;;;;5050857;28;20056;-74
2022/08/23 02:23:27;;;;;;;2.95;2.28;;;21.90;64.30;;;;;;5054651;28;20052;-74
2022/08/23 02:25:54;;;;;;;2.85;2.30;;;21.90;64.30;;;;;;5070812;28;20059;-74
2022/08/23 02:28:21;;;;;;;3.90;2.22;;;21.90;64.30;;;;;;5066038;28;20511;-74
2022/08/23 02:30:49;;;;;;;2.72;2.13;;;21.90;64.30;;;;;;5051627;28;20617;-74
2022/08/23 02:33:16;;;;;;;4.03;2.20;;;21.90;64.30;;;;;;5050621;28;20053;-74
2022/08/23 02:35:43;;;;;;;3.00;2.13;;;21.90;64.30;;;;;;5050779;28;20060;-75
2022/08/23 02:38:11;;;;;;;2.97;2.20;;;21.90;64.30;;;;;;5050633;28;20085;-74
2022/08/23 02:40:38;;;;;;;5.90;2.60;;;21.90;64.30;;;;;;5054901;28;20545;-74
2022/08/23 02:43:05;;;;;;;3.50;2.25;;;21.80;64.30;;;;;;5057856;28;20052;-75
2022/08/23 02:45:32;;;;;;;3.97;2.28;;;21.80;64.30;;;;;;5070647;28;20058;-74
2022/08/23 02:48:00;;;;;;;4.45;2.40;;;21.80;64.30;;;;;;5071634;28;20493;-75
2022/08/23 02:50:27;;;;;;;4.38;2.53;;;21.90;64.30;;;;;;5070156;28;20048;-75
2022/08/23 02:52:54;;;;;;;3.53;2.50;;;21.80;64.30;;;;;;5070515;28;20055;-75
2022/08/23 02:55:20;;;;;;;3.15;1.92;;;21.70;64.20;;;;;;5070069;28;20052;-75
2022/08/23 02:57:47;;;;;;;3.72;2.60;;;21.90;64.30;;;;;;5068944;28;20129;-75
2022/08/23 03:00:15;;;;;;;3.80;2.42;;;21.90;64.30;;;;;;5057575;28;20485;-75
2022/08/23 03:02:41;;;;;;;3.30;2.10;;;21.80;64.20;;;;;;5055577;28;20523;-76
2022/08/23 03:05:13;;;;;;;3.17;2.38;;;21.80;64.10;;;;;;5050207;28;20045;-76
2022/08/23 03:07:40;;;;;;;4.35;2.67;;;21.90;64.20;;;;;;5050487;28;20490;-75
2022/08/23 03:10:08;;;;;;;3.40;2.40;;;21.80;64.10;;;;;;5051062;28;20102;-74
2022/08/23 03:12:34;;;;;;;2.95;2.30;;;21.90;64.20;;;;;;5051508;28;20445;-74
2022/08/23 03:15:01;;;;;;;3.03;2.40;;;21.90;64.10;;;;;;5050513;28;20493;-76
2022/08/23 03:17:28;;;;;;;3.47;2.72;;;21.80;64.10;;;;;;5070130;28;20135;-75
2022/08/23 03:19:55;;;;;;;2.80;2.50;;;21.80;64.00;;;;;;5034682;28;20104;-75
2022/08/23 03:22:23;;;;;;;4.00;2.53;;;21.80;64.00;;;;;;5050082;28;20057;-75
2022/08/23 03:24:49;;;;;;;3.25;2.55;;;21.80;64.00;;;;;;5062916;28;20128;-75
2022/08/23 03:27:16;;;;;;;4.38;2.88;;;21.90;64.00;;;;;;5053165;28;20403;-75
2022/08/23 03:29:43;;;;;;;3.85;2.97;;;21.80;63.90;;;;;;5038777;28;20057;-74
2022/08/23 03:32:10;;;;;;;3.38;2.35;;;21.80;63.90;;;;;;5072324;28;20132;-75
2022/08/23 03:34:37;;;;;;;3.17;2.78;;;21.80;64.50;;;;;;5073475;28;20044;-74
2022/08/23 03:37:24;;;;;;;2.60;2.25;;;21.80;63.90;;;;;;5074848;28;20127;-74
2022/08/23 03:39:51;;;;;;;3.28;2.53;;;21.80;63.90;;;;;;5058060;28;20049;-75
2022/08/23 03:42:18;;;;;;;2.63;2.25;;;21.80;63.90;;;;;;5072860;28;20093;-74
2022/08/23 03:44:44;;;;;;;3.33;2.38;;;21.80;63.90;;;;;;5074219;28;20114;-74
2022/08/23 03:47:11;;;;;;;2.85;2.25;;;21.80;63.90;;;;;;5074675;28;20052;-75
2022/08/23 03:49:38;;;;;;;3.15;2.20;;;21.80;63.80;;;;;;5071477;28;20049;-74
2022/08/23 03:52:05;;;;;;;3.85;2.40;;;21.80;63.80;;;;;;5058126;28;20090;-74
2022/08/23 03:54:34;;;;;;;3.92;2.38;;;21.80;63.80;;;;;;5074692;28;20473;-74
2022/08/23 03:57:02;;;;;;;3.45;2.20;;;21.80;63.80;;;;;;5072356;28;20062;-74
2022/08/23 03:59:29;;;;;;;2.60;2.20;;;21.80;65.20;;;;;;5073394;28;20485;-74
2022/08/23 04:01:56;;;;;;;2.42;2.13;;;21.80;63.80;;;;;;5072955;28;20137;-75
2022/08/23 04:04:22;;;;;;;2.90;2.30;;;21.70;63.70;;;;;;5056902;28;20052;-74
2022/08/23 04:06:49;;;;;;;3.00;2.33;;;21.80;63.70;;;;;;5054675;28;20084;-74
2022/08/23 04:09:16;;;;;;;2.90;2.30;;;21.70;63.70;;;;;;5053320;28;20136;-75
2022/08/23 04:11:44;;;;;;;3.17;2.40;;;21.70;63.70;;;;;;5052909;28;20063;-76
2022/08/23 04:14:12;;;;;;;4.30;2.50;;;21.70;63.70;;;;;;5053264;28;20060;-76
2022/08/23 04:16:39;;;;;;;3.47;2.42;;;21.70;63.70;;;;;;5053548;28;20053;-74
2022/08/23 04:19:06;;;;;;;2.80;2.10;;;21.70;63.70;;;;;;5054852;28;20053;-74
2022/08/23 04:21:32;;;;;;;2.83;2.00;;;21.70;63.70;;;;;;5071312;28;20139;-75
2022/08/23 04:23:59;;;;;;;3.00;2.10;;;21.70;63.70;;;;;;5071605;28;20054;-76
2022/08/23 04:26:26;;;;;;;4.68;2.20;;;21.70;63.70;;;;;;5072714;28;20132;-75
2022/08/23 04:28:54;;;;;;;2.92;2.22;;;21.70;63.80;;;;;;5057826;28;20053;-74
2022/08/23 04:31:21;;;;;;;3.10;2.80;;;21.60;63.70;;;;;;5052495;28;20048;-74
2022/08/23 04:33:48;;;;;;;3.00;2.30;;;21.70;63.80;;;;;;5054393;28;20059;-74
2022/08/23 04:36:15;;;;;;;3.88;2.70;;;21.60;63.80;;;;;;5052609;28;20080;-75
2022/08/23 04:38:41;;;;;;;3.15;2.60;;;21.60;63.80;;;;;;5054557;28;20079;-74
2022/08/23 04:43:55;;;;;;;3.58;2.70;;;21.60;63.90;;;;;;5052293;28;20049;-75
2022/08/23 04:46:22;;;;;;;5.40;2.80;;;21.60;64.00;;;;;;5054226;28;20075;-74
2022/08/23 04:48:49;;;;;;;2.60;2.40;;;21.60;64.00;;;;;;5052599;28;20059;-74
2022/08/23 04:51:16;;;;;;;3.63;2.50;;;21.50;64.00;;;;;;5051281;28;20048;-76
2022/08/23 04:53:43;;;;;;;5.07;2.50;;;21.50;64.00;;;;;;5054137;28;20131;-74
2022/08/23 04:56:09;;;;;;;3.58;2.88;;;21.60;64.10;;;;;;5055677;28;20128;-74
2022/08/23 04:58:37;;;;;;;3.00;2.55;;;21.50;64.10;;;;;;5049600;28;20088;-74
2022/08/23 05:01:07;;;;;;;4.07;2.38;;;21.60;64.10;;;;;;5053776;28;20060;-75
2022/08/23 05:03:34;;;;;;;2.83;2.30;;;21.60;64.20;;;;;;5052950;28;20053;-74
2022/08/23 05:06:01;;;;;;;2.97;2.40;;;21.70;64.30;;;;;;5065163;28;20082;-73
2022/08/23 05:08:27;;;;;;;2.55;2.35;;;21.50;64.10;;;;;;5055940;28;20128;-73
2022/08/23 05:10:54;;;;;;;3.45;3.15;;;21.50;64.20;;;;;;5051876;28;20059;-73
2022/08/23 05:13:21;;;;;;;6.38;2.97;;;21.60;64.10;;;;;;5052035;28;20693;-73
2022/08/23 05:15:50;;;;;;;3.88;2.70;;;21.50;64.10;;;;;;5043820;28;20165;-73
2022/08/23 05:18:18;;;;;;;3.67;2.83;;;21.50;64.10;;;;;;5052089;28;20132;-73
2022/08/23 05:20:45;;;;;;;4.97;3.00;;;21.50;64.10;;;;;;5053262;28;20143;-73
2022/08/23 05:23:12;;;;;;;3.30;2.70;;;22.10;64.50;;;;;;5053210;28;20049;-73
2022/08/23 05:25:51;;;;;;;5.55;2.80;;;21.50;64.20;;;;;;5036621;28;20044;-73
2022/08/23 05:28:18;;;;;;;3.67;2.53;;;21.50;64.20;;;;;;5052801;28;20084;-73
2022/08/23 05:30:45;;;;;;;3.60;2.50;;;21.50;64.20;;;;;;5069138;28;20571;-74
2022/08/23 05:33:12;;;;;;;3.40;2.45;;;21.50;64.20;;;;;;5072341;28;20555;-75
2022/08/23 05:35:40;;;;;;;3.30;2.78;;;21.50;64.20;;;;;;5071155;28;20059;-75
2022/08/23 05:38:10;;;;;;;3.15;2.60;;;21.50;64.20;;;;;;5054368;28;20063;-75
2022/08/23 05:40:37;;;;;;;2.60;2.40;;;21.50;64.20;;;;;;5058099;28;20417;-75
2022/08/23 05:43:03;;;;;;;3.03;2.60;;;21.40;66.50;;;;;;5057344;28;20057;-75
2022/08/23 05:45:30;;;;;;;3.65;2.58;;;21.40;64.10;;;;;;5057717;28;20493;-74
2022/08/23 05:47:57;;;;;;;2.45;2.20;;;21.50;66.30;;;;;;5052898;28;20132;-75
2022/08/23 05:50:24;;;;;;;3.92;2.63;;;21.50;64.20;;;;;;5051649;28;20097;-75
2022/08/23 05:52:52;;;;;;;4.20;2.50;;;21.50;64.10;;;;;;5050425;28;20083;-74
2022/08/23 05:55:18;;;;;;;5.78;2.90;;;21.40;64.10;;;;;;5050428;28;20132;-74
2022/08/23 05:57:45;;;;;;;5.50;2.65;;;21.40;64.10;;;;;;5049979;28;20502;-75
2022/08/23 06:00:13;;;;;;;4.10;2.42;;;21.50;66.30;;;;;;5064394;28;20060;-75
2022/08/23 06:02:40;;;;;;;2.72;2.30;;;21.40;64.10;;;;;;5055862;28;20057;-75
2022/08/23 06:05:08;;;;;;;3.60;2.72;;;21.50;64.10;;;;;;5051554;28;20044;-74
2022/08/23 06:07:34;;;;;;;3.47;2.58;;;21.50;64.10;;;;;;5057905;28;20136;-73
2022/08/23 06:10:03;;;;;;;3.67;3.08;;;21.40;64.00;;;;;;5050541;28;20524;-76
2022/08/23 06:12:30;;;;;;;3.42;2.83;;;21.50;64.10;;;;;;5051134;28;20048;-74
2022/08/23 06:14:58;;;;;;;2.90;2.40;;;21.50;64.10;;;;;;5070793;28;20139;-73
2022/08/23 06:17:24;;;;;;;7.07;2.90;;;21.50;64.10;;;;;;5059531;28;20048;-74
2022/08/23 06:19:51;;;;;;;3.15;2.35;;;21.50;64.10;;;;;;5064668;28;20067;-75
2022/08/23 06:22:19;;;;;;;3.28;2.38;;;21.50;64.00;;;;;;5067686;28;20140;-76
2022/08/23 06:24:46;;;;;;;2.70;2.20;;;21.50;63.90;;;;;;5063547;28;20057;-76
2022/08/23 06:27:14;;;;;;;2.83;1.95;;;21.50;63.90;;;;;;5071030;28;20469;-76
2022/08/23 06:29:41;;;;;;;3.35;2.15;;;21.50;63.80;;;;;;5070908;28;20138;-76
2022/08/23 06:32:07;;;;;;;2.10;1.90;;;21.50;63.80;;;;;;5070568;28;20079;-76
2022/08/23 06:34:36;;;;;;;2.40;2.20;;;21.50;63.80;;;;;;5070795;28;20075;-76
2022/08/23 06:37:05;;;;;;;3.13;2.10;;;21.60;63.80;;;;;;5059831;28;20575;-76
2022/08/23 06:39:32;;;;;;;2.42;2.10;;;21.50;63.70;;;;;;5050983;28;20088;-76
2022/08/23 06:41:59;;;;;;;2.20;1.80;;;21.50;63.70;;;;;;5050373;28;20136;-76
2022/08/23 06:44:28;;;;;;;2.10;1.90;;;21.60;63.70;;;;;;5050698;28;20057;-75
2022/08/23 06:46:56;;;;;;;4.10;2.47;;;21.60;63.60;;;;;;5050653;28;20091;-75
2022/08/23 06:49:23;;;;;;;3.60;2.45;;;21.70;63.60;;;;;;5050774;28;20057;-74
2022/08/23 06:51:51;;;;;;;2.45;1.95;;;21.70;65.70;;;;;;5069345;28;20093;-74
2022/08/23 06:54:19;;;;;;;2.00;1.80;;;21.80;63.40;;;;;;5070672;28;20056;-74
2022/08/23 06:56:46;;;;;;;2.78;1.88;;;21.90;63.40;;;;;;5070750;28;20060;-76
2022/08/23 06:59:13;;;;;;;2.05;1.83;;;22.00;63.50;;;;;;5070331;28;20060;-75
2022/08/23 07:01:43;;;;;;;2.13;1.90;;;22.10;63.40;;;;;;5069154;28;20087;-76
2022/08/23 07:04:10;;;;;;;2.22;1.98;;;22.20;63.30;;;;;;5054426;28;20496;-73
2022/08/23 07:06:37;;;;;;;2.28;1.90;;;22.30;63.10;;;;;;5054747;28;20131;-76
2022/08/23 07:09:04;;;;;;;2.95;2.35;;;22.40;63.00;;;;;;5054601;28;20059;-76
2022/08/23 07:11:31;;;;;;;2.92;2.13;;;22.40;62.80;;;;;;5067343;28;20485;-75
2022/08/23 07:13:59;;;;;;;4.75;2.10;;;22.40;62.70;;;;;;5073704;28;20060;-73
2022/08/23 07:16:31;;;;;;;3.65;2.20;;;22.50;62.70;;;;;;5074432;28;20044;-73
2022/08/23 07:19:00;;;;;;;9.20;2.60;;;22.60;62.70;;;;;;5074558;28;20453;-73
2022/08/23 07:21:26;;;;;;;8.10;2.45;;;22.80;62.70;;;;;;5055916;28;20053;-73
2022/08/23 07:23:53;;;;;;;19.23;2.40;;;22.60;63.00;;;;;;5054334;28;20083;-75
2022/08/23 07:26:21;;;;;;;4.05;2.17;;;22.60;62.40;;;;;;5054137;28;20129;-76
2022/08/23 07:28:48;;;;;;;5.20;2.40;;;22.70;62.30;;;;;;5071120;28;20053;-76
2022/08/23 07:31:16;;;;;;;6.45;2.58;;;22.70;62.30;;;;;;5074132;28;20056;-76
2022/08/23 07:33:43;;;;;;;5.78;2.30;;;22.70;62.30;;;;;;5074415;28;20059;-76
2022/08/23 07:36:13;;;;;;;7.25;2.50;;;22.70;62.30;;;;;;5075112;28;20055;-76
2022/08/23 07:38:40;;;;;;;9.98;2.60;;;22.60;62.40;;;;;;5060772;28;20063;-76
2022/08/23 07:41:07;;;;;;;5.15;2.17;;;22.80;62.50;;;;;;5053924;28;20135;-76
2022/08/23 07:43:33;;;;;;;4.15;2.13;;;22.80;62.40;;;;;;5053940;28;20079;-76
2022/08/23 07:46:00;;;;;;;4.50;2.38;;;22.80;62.50;;;;;;5053989;28;20077;-73
2022/08/23 07:48:27;;;;;;;6.30;2.60;;;22.80;62.40;;;;;;5054071;28;20405;-73
2022/08/23 07:50:54;;;;;;;7.40;2.97;;;22.80;62.50;;;;;;5053593;28;20064;-75
2022/08/23 07:53:23;;;;;;;8.23;2.80;;;22.80;62.50;;;;;;5072686;28;20055;-74
2022/08/23 07:55:50;;;;;;;5.38;2.72;;;22.80;62.50;;;;;;5073475;28;20062;-75
2022/08/23 07:58:17;;;;;;;10.98;3.30;;;22.80;62.60;;;;;;5074861;28;20131;-74
2022/08/23 08:00:45;;;;;;;11.57;2.97;;;22.80;62.60;;;;;;5074609;28;20087;-75
2022/08/23 08:03:12;;;;;;;7.03;2.85;;;22.80;62.80;;;;;;5073523;28;20056;-75
2022/08/23 08:05:38;;;;;;;9.57;2.63;;;22.80;62.90;;;;;;5066482;28;20079;-75
2022/08/23 08:08:05;;;;;;;6.72;2.60;;;22.80;62.80;;;;;;5054428;28;20055;-72
2022/08/23 08:10:35;;;;;;;10.27;2.83;;;22.80;62.80;;;;;;5053940;28;20075;-73
2022/08/23 08:13:02;;;;;;;6.82;2.63;;;22.80;62.90;;;;;;5052461;28;20065;-74
2022/08/23 08:15:28;;;;;;;5.45;2.53;;;22.80;63.10;;;;;;5053137;28;20053;-74
2022/08/23 08:17:55;;;;;;;12.38;2.70;;;22.80;63.60;;;;;;5055825;28;20067;-74
2022/08/23 08:20:22;;;;;;;12.15;3.17;;;22.80;63.10;;;;;;5053041;28;20156;-75
2022/08/23 08:22:49;;;;;;;6.65;2.67;;;22.80;63.10;;;;;;5052322;28;20064;-74
2022/08/23 08:25:16;;;;;;;8.77;2.70;;;22.90;63.60;;;;;;5050789;28;20120;-75
2022/08/23 08:27:44;;;;;;;5.05;2.97;;;22.90;63.00;;;;;;5054017;28;20049;-75
2022/08/23 08:30:12;;;;;;;7.20;2.92;;;22.90;62.90;;;;;;5052385;28;20080;-73
2022/08/23 08:32:38;;;;;;;7.13;2.55;;;23.00;62.80;;;;;;5052809;28;20132;-72
2022/08/23 08:35:06;;;;;;;6.57;2.70;;;23.00;63.20;;;;;;5052480;28;20137;-73
2022/08/23 08:37:35;;;;;;;5.72;2.53;;;23.00;62.60;;;;;;5053237;28;20135;-75
2022/08/23 08:40:02;;;;;;;3.70;2.40;;;23.00;62.40;;;;;;5051983;28;20401;-76
2022/08/23 08:42:41;;;;;;;3.67;2.22;;;23.10;62.40;;;;;;5052434;28;20557;-73
2022/08/23 08:45:13;;;;;;;4.38;2.40;;;23.10;62.30;;;;;;5051523;28;20133;-75
2022/08/23 08:47:43;;;;;;;5.75;2.83;;;23.10;62.20;;;;;;5050068;28;20128;-75
2022/08/23 08:50:13;;;;;;;4.55;2.60;;;23.10;62.20;;;;;;5051480;28;20059;-74
2022/08/23 08:52:42;;;;;;;8.45;2.60;;;23.10;62.10;;;;;;5052069;28;20132;-75
2022/08/23 08:55:11;;;;;;;4.80;2.58;;;23.10;62.00;;;;;;5051989;28;20486;-74
2022/08/23 08:57:39;;;;;;;5.97;2.85;;;23.10;62.00;;;;;;5052373;28;20584;-75
2022/08/23 09:00:09;;;;;;;4.28;2.10;;;23.10;62.00;;;;;;5051310;28;20057;-75
2022/08/23 09:02:37;;;;;;;3.28;2.20;;;23.10;61.90;;;;;;5051703;28;20059;-75
2022/08/23 09:05:07;;;;;;;6.45;2.55;;;23.10;61.90;;;;;;5050320;28;20088;-75
2022/08/23 09:07:40;;;;;;;5.50;2.20;;;23.10;61.90;;;;;;5048845;28;20151;-75
2022/08/23 09:10:29;;;;;;;4.28;2.40;;;23.20;61.90;;;;;;5051769;28;20053;-76
2022/08/23 09:12:59;;;;;;;4.45;2.40;;;23.10;61.80;;;;;;5039380;28;20124;-76
2022/08/23 09:15:30;;;;;;;3.72;2.30;;;23.30;61.90;;;;;;5052565;28;20045;-77
2022/08/23 09:18:00;;;;;;;5.28;2.72;;;23.20;61.80;;;;;;5052740;28;20421;-75
2022/08/23 09:20:28;;;;;;;2.33;2.10;;;23.20;61.80;;;;;;5048336;28;20052;-75
2022/08/23 09:22:59;;;;;;;5.68;2.38;;;23.20;61.90;;;;;;5051640;28;20057;-76
2022/08/23 09:25:26;;;;;;;3.25;2.30;;;23.20;61.90;;;;;;5051301;28;20052;-73
2022/08/23 09:27:52;;;;;;;3.72;2.30;;;23.20;61.90;;;;;;5051833;28;20568;-74
2022/08/23 09:30:19;;;;;;;4.68;2.33;;;23.20;61.90;;;;;;5051273;28;20135;-74
2022/08/23 09:32:48;;;;;;;6.05;2.42;;;23.20;61.90;;;;;;5051676;28;20131;-76
2022/08/23 09:35:18;;;;;;;4.75;2.50;;;23.30;62.00;;;;;;5051394;28;20465;-76
2022/08/23 09:37:58;;;;;;;10.18;2.40;;;23.30;62.00;;;;;;5051733;28;20053;-76
2022/08/23 09:40:35;;;;;;;10.27;2.90;;;23.50;64.10;;;;;;5051372;28;20083;-76
2022/08/23 09:43:13;;;;;;;4.28;2.20;;;23.30;62.20;;;;;;5051533;28;20123;-76
2022/08/23 09:45:42;;;;;;;4.60;2.30;;;23.40;62.10;;;;;;5051385;28;20055;-74
2022/08/23 09:48:12;;;;;;;4.93;2.28;;;23.30;62.10;;;;;;5063540;28;20604;-74
2022/08/23 09:50:42;;;;;;;3.17;2.30;;;23.40;62.10;;;;;;5053773;28;20144;-74
2022/08/23 09:53:09;;;;;;;7.32;2.40;;;23.40;62.00;;;;;;5055120;28;20508;-74
2022/08/23 09:55:38;;;;;;;5.70;2.67;;;23.40;62.10;;;;;;5058116;28;20132;-75
2022/08/23 09:58:06;;;;;;;4.75;2.10;;;23.50;62.10;;;;;;5051228;28;20076;-75
2022/08/23 10:00:34;;;;;;;4.13;2.10;;;23.50;62.10;;;;;;5030869;28;20084;-76
2022/08/23 10:03:20;;;;;;;3.97;2.10;;;23.50;62.20;;;;;;5031141;28;20071;-75
2022/08/23 10:05:50;;;;;;;4.00;2.30;;;23.50;62.10;;;;;;5031674;28;20057;-76
2022/08/23 10:08:22;;;;;;;4.47;2.13;;;23.60;62.10;;;;;;5032409;28;20553;-76
2022/08/23 10:10:50;;;;;;;2.70;1.92;;;23.60;62.10;;;;;;5049491;28;20057;-73
2022/08/23 10:13:17;;;;;;;6.07;2.30;;;23.60;62.10;;;;;;5050674;28;20160;-73
2022/08/23 10:15:49;;;;;;;3.58;2.15;;;23.80;62.70;;;;;;5051292;28;20585;-73
2022/08/23 10:18:22;;;;;;;3.15;2.30;;;23.60;62.00;;;;;;5051152;28;20061;-73
2022/08/23 10:20:53;;;;;;;3.22;2.15;;;23.60;61.90;;;;;;5051166;28;20053;-76
2022/08/23 10:23:23;;;;;;;3.47;2.22;;;23.60;61.90;;;;;;5050116;28;20055;-74
2022/08/23 10:25:54;;;;;;;4.50;2.20;;;23.60;61.80;;;;;;5049495;28;20041;-75
2022/08/23 10:31:25;;;;;;;3.83;2.03;;;23.60;61.80;;;;;;5050539;28;20049;-77
2022/08/23 10:33:58;;;;;;;3.80;2.40;;;23.70;61.90;;;;;;5050954;28;20413;-73
2022/08/23 10:36:31;;;;;;;2.78;1.90;;;23.70;61.80;;;;;;5057042;28;20123;-74
2022/08/23 10:38:58;;;;;;;3.65;2.10;;;23.70;63.30;;;;;;5054666;28;20091;-75
2022/08/23 10:41:40;;;;;;;4.20;1.83;;;23.70;62.40;;;;;;5050357;28;20060;-75
2022/08/23 10:44:20;;;;;;;4.75;2.15;;;23.80;61.80;;;;;;5050337;28;20566;-77
2022/08/23 10:46:51;;;;;;;6.13;2.10;;;23.80;61.70;;;;;;5050435;28;20581;-76
2022/08/23 10:49:18;;;;;;;2.72;2.10;;;23.70;61.70;;;;;;5049982;28;20057;-76
2022/08/23 10:51:47;;;;;;;4.10;2.20;;;23.80;61.60;;;;;;5069689;28;20091;-76
2022/08/23 10:54:17;;;;;;;3.25;2.20;;;23.80;61.60;;;;;;5070387;28;20135;-75
2022/08/23 10:56:44;;;;;;;3.97;2.10;;;23.80;61.50;;;;;;5053717;28;20060;-75
2022/08/23 10:59:13;;;;;;;5.22;2.40;;;23.90;61.50;;;;;;5050108;28;20577;-74
2022/08/23 11:01:44;;;;;;;2.67;1.95;;;22.90;62.70;;;;;;5049758;28;20072;-75
2022/08/23 11:04:16;;;;;;;3.05;2.10;;;23.80;61.40;;;;;;5050474;28;20056;-75
2022/08/23 11:06:49;;;;;;;2.60;2.25;;;23.80;61.40;;;;;;5049543;28;20464;-75
2022/08/23 11:09:50;;;;;;;3.42;2.10;;;23.80;61.40;;;;;;5050329;28;20409;-75
2022/08/23 11:12:25;;;;;;;4.88;2.10;;;23.90;61.40;;;;;;5046838;28;20055;-75
2022/08/23 11:15:10;;;;;;;5.35;2.10;;;23.90;61.40;;;;;;5050224;28;20092;-74
2022/08/23 11:17:42;;;;;;;4.13;2.00;;;23.90;61.40;;;;;;5054506;28;20052;-74
2022/08/23 11:20:09;;;;;;;2.53;1.90;;;23.90;61.30;;;;;;5070224;28;20485;-74
2022/08/23 11:23:09;;;;;;;2.75;2.10;;;23.90;61.30;;;;;;5070240;28;20060;-76
2022/08/23 11:25:42;;;;;;;2.22;1.90;;;23.90;61.30;;;;;;5070143;28;20055;-77
2022/08/23 11:28:30;;;;;;;3.08;2.10;;;23.90;61.30;;;;;;5070690;28;20059;-77
2022/08/23 11:30:58;;;;;;;3.25;1.98;;;23.90;61.30;;;;;;5069803;28;20400;-77
2022/08/23 11:33:25;;;;;;;2.53;1.90;;;23.90;61.30;;;;;;5049790;28;20232;-77
2022/08/23 11:35:53;;;;;;;2.20;2.00;;;23.90;61.20;;;;;;5051392;28;20551;-77
2022/08/23 11:38:59;;;;;;;3.30;2.20;;;23.90;61.20;;;;;;5050089;28;20060;-77
2022/08/23 11:41:27;;;;;;;4.25;1.92;;;23.90;61.20;;;;;;5030121;28;20053;-77
2022/08/23 11:44:16;;;;;;;2.35;1.70;;;24.00;61.20;;;;;;5050245;28;20057;-76
2022/08/23 11:46:58;;;;;;;2.33;1.95;;;23.90;61.10;;;;;;5050539;28;20067;-76
2022/08/23 11:49:49;;;;;;;3.60;1.63;;;24.00;61.10;;;;;;5053486;28;20127;-76
2022/08/23 11:52:24;;;;;;;2.65;2.15;;;24.00;61.20;;;;;;5053596;28;20061;-73
2022/08/23 11:55:02;;;;;;;2.95;1.63;;;24.00;61.20;;;;;;5052446;28;20082;-74
2022/08/23 11:57:35;;;;;;;2.20;2.00;;;24.00;61.20;;;;;;5053316;28;20088;-74
2022/08/23 12:00:18;;;;;;;1.95;1.77;;;24.00;61.10;;;;;;5057519;28;20048;-73
2022/08/23 12:02:54;;;;;;;2.33;1.80;;;24.00;61.10;;;;;;5071353;28;20082;-74
2022/08/23 12:05:31;;;;;;;2.60;1.85;;;24.00;61.10;;;;;;5073678;28;20060;-73
2022/08/23 12:08:28;;;;;;;2.03;1.80;;;24.00;61.10;;;;;;5073622;28;20080;-75
2022/08/23 12:11:06;;;;;;;2.88;2.00;;;24.00;61.20;;;;;;5073390;28;20060;-75
2022/08/23 12:13:49;;;;;;;2.50;1.80;;;24.00;61.10;;;;;;5073033;28;20132;-76
2022/08/23 12:16:43;;;;;;;2.72;1.90;;;24.00;61.20;;;;;;5056498;28;20057;-74
2022/08/23 12:19:11;;;;;;;2.40;1.90;;;24.00;61.10;;;;;;5018808;28;20056;-75
2022/08/23 12:21:44;;;;;;;2.33;1.80;;;24.00;61.10;;;;;;5054269;28;20060;-74
2022/08/23 12:24:21;;;;;;;2.47;1.95;;;24.00;61.10;;;;;;5054363;28;20414;-73
2022/08/23 12:26:53;;;;;;;2.33;2.00;;;24.00;61.00;;;;;;5054137;28;20468;-74
2022/08/23 12:29:35;;;;;;;2.42;1.90;;;24.20;61.70;;;;;;5064134;28;20062;-74
2022/08/23 12:32:06;;;;;;;2.08;1.75;;;24.20;61.20;;;;;;5074204;28;20049;-74
2022/08/23 12:34:37;;;;;;;1.95;1.75;;;24.10;61.10;;;;;;5074141;28;20059;-75
2022/08/23 12:37:09;;;;;;;3.90;1.90;;;24.00;61.10;;;;;;5072760;28;20052;-75
2022/08/23 12:39:38;;;;;;;2.42;2.00;;;24.00;61.00;;;;;;5073076;28;20052;-75
2022/08/23 12:42:06;;;;;;;2.40;2.00;;;24.10;61.10;;;;;;5072858;28;20064;-75
2022/08/23 12:44:34;;;;;;;2.05;1.80;;;24.00;61.00;;;;;;5054798;28;20083;-75
2022/08/23 12:47:10;;;;;;;3.25;2.05;;;24.10;61.10;;;;;;5072963;28;20544;-75
2022/08/23 12:49:37;;;;;;;2.08;1.80;;;24.20;61.10;;;;;;5072416;28;20139;-75
2022/08/23 12:52:06;;;;;;;2.63;2.05;;;24.10;61.10;;;;;;5072607;28;20098;-75
2022/08/23 12:54:37;;;;;;;3.22;1.90;;;24.10;61.10;;;;;;5072026;28;20083;-75
2022/08/23 12:57:10;;;;;;;1.90;1.70;;;24.10;61.10;;;;;;5069467;28;20048;-75
2022/08/23 12:59:42;;;;;;;2.40;1.70;;;24.10;61.10;;;;;;5051107;28;20099;-75
2022/08/23 13:02:12;;;;;;;2.85;1.85;;;24.20;61.20;;;;;;5052330;28;20144;-76
2022/08/23 13:04:39;;;;;;;1.95;1.73;;;24.10;61.10;;;;;;5052547;28;20135;-76
2022/08/23 13:07:08;;;;;;;2.35;1.90;;;24.10;61.10;;;;;;5052556;28;20127;-76
2022/08/23 13:09:35;;;;;;;2.03;1.70;;;24.10;62.60;;;;;;5052386;28;20140;-76
2022/08/23 13:12:02;;;;;;;2.20;1.83;;;24.00;61.10;;;;;;5056146;28;20059;-77